Time;durP1;ratioP1;P1;durP2;ratioP2;P2;SDS_P1;SDS_P2;PMS_P1;PMS_P2;Temp;Humidity;BMP_temperature;BMP_pressure;BME280_temperature;BME280_humidity;BME280_pressure;Samples;Min_cycle;Max_cycle;Signal;HPM_P1;HPM_P2
2021/10/02 00:02:19;;;;;;;5.88;4.97;;;;;;;17.39;61.78;102363.34;4986065;28;102112;-89
2021/10/02 00:45:44;;;;;;;7.05;5.85;;;;;;;17.38;61.69;102362.53;5013410;28;102150;-90
2021/10/02 00:48:13;;;;;;;7.50;5.55;;;;;;;17.36;62.02;102356.47;5015293;28;102749;-89
2021/10/02 00:50:40;;;;;;;6.47;5.35;;;;;;;17.37;61.91;102355.34;5012341;28;102122;-90
2021/10/02 00:53:07;;;;;;;6.47;5.55;;;;;;;17.36;61.61;102350.97;5004932;28;102196;-90
2021/10/02 00:55:35;;;;;;;7.78;5.32;;;;;;;17.37;61.96;102357.28;5012706;28;102169;-91
2021/10/02 00:58:03;;;;;;;6.38;5.72;;;;;;;17.36;61.78;102352.91;5004831;28;102674;-90
2021/10/02 01:00:30;;;;;;;8.00;5.90;;;;;;;17.35;62.05;102357.56;5015606;28;102373;-90
2021/10/02 01:03:09;;;;;;;5.97;5.35;;;;;;;17.36;61.80;102347.38;5016801;28;102262;-90
2021/10/02 01:06:03;;;;;;;5.35;4.85;;;;;;;17.36;62.31;102350.16;5006015;28;102038;-90
2021/10/02 01:08:40;;;;;;;5.80;5.20;;;;;;;17.35;61.71;102346.56;4997536;28;102687;-90
2021/10/02 01:11:30;;;;;;;7.53;5.55;;;;;;;17.35;61.87;102349.31;4991480;28;102543;-90
2021/10/02 01:14:04;;;;;;;5.45;4.95;;;;;;;17.36;61.70;102347.38;4987324;28;102149;-90
2021/10/02 01:16:34;;;;;;;6.97;5.15;;;;;;;17.36;62.25;102348.22;4988298;28;102441;-90
2021/10/02 01:19:34;;;;;;;5.57;5.07;;;;;;;17.35;62.34;102341.06;4983381;28;102720;-88
2021/10/02 01:22:11;;;;;;;6.75;5.35;;;;;;;17.35;62.28;102346.56;4990927;28;102103;-89
2021/10/02 01:24:57;;;;;;;5.47;4.97;;;;;;;17.36;62.03;102342.72;4994960;28;102030;-89
2021/10/02 01:27:56;;;;;;;6.70;5.40;;;;;;;17.35;62.10;102352.06;4983036;28;102005;-89
2021/10/02 01:31:16;;;;;;;;;;;;;;;17.35;62.32;102352.06;4961921;28;102842;-89
2021/10/02 01:47:16;;;;;;;7.35;5.47;;;;;;;17.35;62.21;102345.75;5005906;28;101968;-90
2021/10/02 01:49:47;;;;;;;5.32;4.82;;;;;;;17.36;62.22;102345.47;5014242;28;102078;-89
2021/10/02 01:52:15;;;;;;;5.32;4.82;;;;;;;17.34;62.44;102344.91;5012256;28;102626;-89
2021/10/02 01:54:44;;;;;;;6.00;5.05;;;;;;;17.34;62.04;102344.91;5007985;28;102163;-90
2021/10/02 01:57:11;;;;;;;;;;;;;;;17.34;62.05;102339.41;5014523;28;102135;-89
2021/10/02 01:59:41;;;;;;;6.00;4.78;;;;;;;17.35;61.94;102340.25;5012404;28;102252;-88
2021/10/02 02:02:09;;;;;;;5.90;5.30;;;;;;;17.34;61.81;102344.91;5004960;28;102746;-88
2021/10/02 02:04:40;;;;;;;5.60;4.88;;;;;;;17.34;62.35;102344.91;5002836;28;102032;-89
2021/10/02 02:07:08;;;;;;;6.35;5.07;;;;;;;17.34;62.08;102344.91;5012773;28;102059;-89
2021/10/02 02:09:39;;;;;;;5.47;4.83;;;;;;;17.34;62.01;102344.91;5007038;28;102258;-89
2021/10/02 02:12:15;;;;;;;5.38;4.88;;;;;;;17.34;62.12;102347.66;5017506;28;102728;-88
2021/10/02 02:14:46;;;;;;;6.22;5.07;;;;;;;17.34;62.43;102341.31;5019538;28;102220;-89
2021/10/02 02:17:17;;;;;;;7.55;5.38;;;;;;;17.32;62.40;102346.31;5005745;28;102214;-89
2021/10/02 02:19:46;;;;;;;5.72;5.13;;;;;;;17.32;61.85;102347.13;5011161;28;102184;-88
2021/10/02 02:22:13;;;;;;;5.65;4.78;;;;;;;17.34;61.99;102341.31;5001940;28;102769;-89
2021/10/02 02:24:41;;;;;;;6.13;5.27;;;;;;;17.34;62.27;102344.06;5001385;28;102960;-88
2021/10/02 02:27:08;;;;;;;5.13;4.63;;;;;;;17.34;62.36;102346.81;4995282;28;102155;-89
2021/10/02 02:29:35;;;;;;;5.97;5.17;;;;;;;17.33;62.08;102348.75;5001162;28;102946;-90
2021/10/02 02:32:04;;;;;;;6.75;4.93;;;;;;;17.32;62.32;102336.13;5014857;28;102790;-89
2021/10/02 02:34:34;;;;;;;6.25;4.35;;;;;;;17.34;62.13;102338.56;5017423;28;101918;-90
2021/10/02 02:37:01;;;;;;;5.68;5.07;;;;;;;17.32;62.07;102338.88;5006023;28;101937;-90
2021/10/02 02:39:28;;;;;;;5.63;4.68;;;;;;;17.32;62.13;102333.34;5013458;28;102109;-90
2021/10/02 02:41:55;;;;;;;5.38;4.88;;;;;;;17.32;62.39;102333.34;5012451;28;102857;-90
2021/10/02 02:44:22;;;;;;;5.82;5.03;;;;;;;17.31;62.18;102334.47;5007143;28;102143;-90
2021/10/02 02:46:54;;;;;;;5.22;4.72;;;;;;;17.33;62.17;102337.75;5009247;28;102229;-89
2021/10/02 02:49:26;;;;;;;5.63;4.75;;;;;;;17.32;62.04;102335.28;5017180;28;102213;-90
2021/10/02 02:51:58;;;;;;;5.25;4.75;;;;;;;17.32;62.46;102332.53;5012128;28;102456;-90
2021/10/02 02:54:33;;;;;;;5.25;4.75;;;;;;;17.33;62.16;102334.19;5010134;28;102177;-90
2021/10/02 02:57:07;;;;;;;5.63;5.00;;;;;;;17.32;62.39;102330.59;5010166;28;102228;-90
2021/10/02 02:59:37;;;;;;;5.07;4.57;;;;;;;17.31;62.39;102326.22;5010296;28;101949;-90
2021/10/02 03:02:06;;;;;;;5.97;4.80;;;;;;;17.31;61.84;102328.97;5009408;28;102768;-89
2021/10/02 03:04:38;;;;;;;7.05;4.90;;;;;;;17.32;62.13;102318.78;5009504;28;101895;-89
2021/10/02 03:07:10;;;;;;;5.63;4.97;;;;;;;17.32;62.19;102318.78;5008590;28;102158;-90
2021/10/02 03:09:42;;;;;;;5.38;4.88;;;;;;;17.33;61.98;102325.94;5010804;28;102112;-90
2021/10/02 03:12:12;;;;;;;4.45;4.03;;;;;;;17.32;62.60;102325.09;5016338;28;102803;-89
2021/10/02 03:14:45;;;;;;;5.55;4.85;;;;;;;17.32;61.96;102319.59;5015023;28;102157;-89
2021/10/02 03:17:16;;;;;;;4.90;4.40;;;;;;;17.32;62.06;102325.09;5008058;28;102237;-89
2021/10/02 03:19:46;;;;;;;5.10;4.50;;;;;;;17.31;62.00;102323.47;5006370;28;102118;-89
2021/10/02 03:22:16;;;;;;;4.90;4.25;;;;;;;17.32;62.05;102316.84;5021853;28;102619;-89
2021/10/02 03:24:45;;;;;;;5.32;4.82;;;;;;;17.32;62.42;102318.78;5008514;28;102168;-89
2021/10/02 03:27:12;;;;;;;5.63;4.88;;;;;;;17.31;62.62;102323.47;5011984;28;102197;-89
2021/10/02 03:29:40;;;;;;;5.40;4.85;;;;;;;17.33;61.94;102320.41;5024496;28;104640;-89
2021/10/02 03:32:08;;;;;;;5.60;4.32;;;;;;;17.32;62.29;102318.78;5003312;28;102657;-89
2021/10/02 03:34:37;;;;;;;6.00;4.60;;;;;;;17.32;62.04;102316.03;5008468;28;101933;-88
2021/10/02 03:37:05;;;;;;;4.85;4.35;;;;;;;17.32;62.23;102316.03;5012510;28;101892;-88
2021/10/02 03:39:33;;;;;;;5.00;4.43;;;;;;;17.31;62.08;102320.72;4986456;28;102252;-88
2021/10/02 03:42:04;;;;;;;5.30;4.68;;;;;;;17.33;61.82;102314.91;5016291;28;102638;-89
2021/10/02 03:44:30;;;;;;;6.72;4.88;;;;;;;17.31;62.21;102312.47;5003881;28;101997;-89
2021/10/02 03:46:57;;;;;;;5.95;4.60;;;;;;;17.32;62.30;102319.59;5003837;28;101997;-89
2021/10/02 03:49:23;;;;;;;4.97;4.47;;;;;;;17.32;62.51;102316.84;5005108;28;102068;-89
2021/10/02 03:51:50;;;;;;;4.65;4.00;;;;;;;17.33;62.06;102314.91;4984694;28;102754;-89
2021/10/02 03:54:18;;;;;;;5.18;4.68;;;;;;;17.32;62.32;102314.09;4990989;28;102034;-89
2021/10/02 03:56:45;;;;;;;4.60;4.20;;;;;;;17.32;62.66;102322.34;4992185;28;102150;-91
2021/10/02 03:59:12;;;;;;;4.50;4.10;;;;;;;17.32;62.59;102314.09;5009235;28;102146;-89
2021/10/02 04:01:39;;;;;;;4.65;4.18;;;;;;;17.32;62.23;102308.59;5012401;28;102443;-89
2021/10/02 04:04:05;;;;;;;5.20;4.70;;;;;;;17.33;62.60;102321.25;5015288;28;102007;-88
2021/10/02 04:06:33;;;;;;;5.40;4.60;;;;;;;17.32;62.18;102318.78;5008700;28;101806;-88
2021/10/02 04:09:00;;;;;;;5.82;4.55;;;;;;;17.30;62.19;102308.84;5003380;28;102042;-90
2021/10/02 04:11:32;;;;;;;4.90;4.40;;;;;;;17.31;62.43;102317.97;5011494;28;102847;-89
2021/10/02 04:14:02;;;;;;;4.80;4.18;;;;;;;17.32;62.52;102319.59;5011435;28;102018;-90
2021/10/02 04:16:31;;;;;;;4.55;4.15;;;;;;;17.31;62.37;102315.22;5001227;28;102162;-90
2021/10/02 04:18:57;;;;;;;4.43;4.03;;;;;;;17.30;62.15;102311.59;5018977;28;102011;-90
2021/10/02 04:21:24;;;;;;;4.80;4.30;;;;;;;17.31;62.16;102312.47;5018581;28;102735;-90
2021/10/02 04:23:53;;;;;;;4.63;4.20;;;;;;;17.30;62.10;102311.59;5010699;28;101976;-90
2021/10/02 04:26:21;;;;;;;4.50;4.10;;;;;;;17.31;62.32;102315.22;5003504;28;102258;-90
2021/10/02 04:28:50;;;;;;;5.30;4.40;;;;;;;17.30;62.28;102311.59;5008745;28;102012;-88
2021/10/02 04:31:17;;;;;;;4.88;4.38;;;;;;;17.31;62.26;102312.47;5005157;28;102746;-87
2021/10/02 04:33:46;;;;;;;5.60;4.57;;;;;;;17.30;62.29;102317.09;5015536;28;102006;-88
2021/10/02 04:36:13;;;;;;;4.65;4.10;;;;;;;17.29;62.25;102315.47;5013023;28;101756;-87
2021/10/02 04:38:40;;;;;;;5.10;4.20;;;;;;;17.30;62.67;102316.28;5008198;28;102026;-87
2021/10/02 04:41:08;;;;;;;5.30;4.75;;;;;;;17.30;62.23;102319.03;5014944;28;102725;-88
2021/10/02 04:43:38;;;;;;;4.28;3.88;;;;;;;17.31;62.05;102323.47;5009049;28;101940;-88
2021/10/02 04:46:07;;;;;;;4.85;4.35;;;;;;;17.30;62.31;102319.03;5013394;28;102089;-88
2021/10/02 04:48:34;;;;;;;4.88;4.30;;;;;;;17.29;62.19;102320.16;5010554;28;102010;-90
2021/10/02 04:51:01;;;;;;;5.13;4.63;;;;;;;17.30;62.47;102321.78;5019573;28;102736;-90
2021/10/02 04:53:27;;;;;;;4.60;4.20;;;;;;;17.30;62.48;102319.88;5007453;28;102982;-90
2021/10/02 04:55:58;;;;;;;5.35;4.45;;;;;;;17.29;62.67;102314.66;5011791;28;102145;-90
2021/10/02 04:58:25;;;;;;;5.13;4.57;;;;;;;17.30;62.58;102316.28;5018463;28;102111;-89
2021/10/02 05:00:52;;;;;;;4.45;4.00;;;;;;;17.29;62.91;102320.16;5009616;28;102745;-89
2021/10/02 05:03:24;;;;;;;5.85;4.55;;;;;;;17.30;62.70;102316.28;5008268;28;102189;-90
2021/10/02 05:05:51;;;;;;;5.85;4.90;;;;;;;17.29;62.36;102318.22;5013373;28;101767;-90
2021/10/02 05:08:18;;;;;;;7.32;5.47;;;;;;;17.29;62.33;102320.97;5014618;28;102057;-90
2021/10/02 05:10:46;;;;;;;6.00;5.07;;;;;;;17.30;62.16;102319.03;5008102;28;102713;-90
2021/10/02 05:13:15;;;;;;;5.65;4.55;;;;;;;17.31;62.82;102317.97;5011207;28;101948;-90
2021/10/02 05:15:41;;;;;;;5.43;4.78;;;;;;;17.32;62.36;102313.28;5000664;28;102101;-89
2021/10/02 05:18:08;;;;;;;10.75;5.03;;;;;;;17.31;62.79;102326.22;5005218;28;102268;-89
2021/10/02 05:20:38;;;;;;;;;;;;;;;17.32;62.92;102322.34;5003836;28;102205;-90
2021/10/02 05:23:06;;;;;;;5.97;5.32;;;;;;;17.31;62.97;102326.22;5007739;28;102079;-90
2021/10/02 05:25:33;;;;;;;7.68;6.15;;;;;;;17.32;62.81;102322.34;5005565;28;102194;-90
2021/10/02 05:27:59;;;;;;;8.98;5.88;;;;;;;17.34;62.98;102322.06;5016574;28;102052;-91
2021/10/02 05:30:26;;;;;;;7.53;5.25;;;;;;;17.34;62.30;102328.38;4984983;28;102615;-90
2021/10/02 05:32:53;;;;;;;7.85;5.68;;;;;;;17.34;62.67;102322.88;4983757;28;102244;-92
2021/10/02 05:35:20;;;;;;;7.35;5.95;;;;;;;17.34;62.71;102322.88;4996594;28;101903;-92
2021/10/02 05:37:48;;;;;;;6.72;5.28;;;;;;;17.33;63.01;102332.25;5003195;28;102222;-93
2021/10/02 05:40:15;;;;;;;6.63;5.38;;;;;;;17.34;62.53;102317.38;5019624;28;105135;-92
2021/10/02 05:42:42;;;;;;;6.65;5.53;;;;;;;17.33;63.09;102317.66;5005960;28;101983;-94
2021/10/02 05:45:09;;;;;;;6.68;5.22;;;;;;;17.34;62.70;102316.56;5002307;28;101800;-93
2021/10/02 05:47:35;;;;;;;7.60;5.75;;;;;;;17.33;62.87;102309.41;5003224;28;102037;-93
2021/10/02 05:50:02;;;;;;;6.72;6.00;;;;;;;17.33;62.59;102315.75;5000175;28;102805;-93
2021/10/02 05:52:29;;;;;;;7.88;5.65;;;;;;;17.34;63.17;102317.38;5008402;28;102117;-92
2021/10/02 05:54:58;;;;;;;7.13;5.60;;;;;;;17.34;62.65;102308.31;5014906;22;101983;-54
2021/10/02 05:57:24;;;;;;;7.20;5.57;;;;;;;17.33;63.04;102310.22;5003402;28;102053;-54
2021/10/02 05:59:51;;;;;;;6.50;5.40;;;;;;;17.34;63.12;102311.06;5003835;28;103017;-54
2021/10/02 06:02:17;;;;;;;6.82;5.45;;;;;;;17.34;62.99;102306.38;5002469;28;102943;-55
2021/10/02 06:04:44;;;;;;;8.25;5.88;;;;;;;17.34;62.77;102311.06;5009035;28;103303;-54
2021/10/02 06:07:11;;;;;;;6.80;5.68;;;;;;;17.35;62.83;102313.53;5008650;28;102212;-54
2021/10/02 06:09:37;;;;;;;6.20;5.15;;;;;;;17.33;63.20;102315.75;5000800;28;104064;-54
2021/10/02 06:12:06;;;;;;;7.78;5.25;;;;;;;17.34;63.25;102311.06;5003520;28;102243;-54
2021/10/02 06:14:33;;;;;;;7.28;5.82;;;;;;;17.33;63.02;102310.22;4996243;28;102517;-54
2021/10/02 06:16:59;;;;;;;8.40;5.80;;;;;;;17.34;62.80;102316.56;5003266;28;102245;-54
2021/10/02 06:19:27;;;;;;;6.35;4.97;;;;;;;17.33;62.86;102314.91;4985085;28;103960;-54
2021/10/02 06:21:54;;;;;;;6.93;5.45;;;;;;;17.32;62.75;102314.09;4988530;28;102286;-54
2021/10/02 06:24:20;;;;;;;7.75;5.30;;;;;;;17.32;63.27;102308.59;4988417;28;102331;-54
2021/10/02 06:26:47;;;;;;;6.55;5.13;;;;;;;17.32;62.61;102319.59;4987376;28;102273;-58
2021/10/02 06:29:15;;;;;;;6.70;5.47;;;;;;;17.32;63.26;102314.09;4991680;28;103892;-54
2021/10/02 06:31:42;;;;;;;7.03;5.57;;;;;;;17.31;63.34;102312.47;4983581;28;102105;-54
2021/10/02 06:34:08;;;;;;;8.43;5.45;;;;;;;17.30;62.89;102311.59;4975862;28;102151;-55
2021/10/02 06:36:35;;;;;;;7.60;5.57;;;;;;;17.32;63.16;102316.84;4990189;28;102641;-54
2021/10/02 06:39:02;;;;;;;7.07;5.30;;;;;;;17.32;63.00;102316.03;4988588;28;102840;-54
2021/10/02 06:41:29;;;;;;;6.38;5.15;;;;;;;17.32;62.68;102319.59;4995144;28;103275;-54
2021/10/02 06:43:56;;;;;;;8.23;5.45;;;;;;;17.30;62.90;102313.53;4989285;28;102740;-54
2021/10/02 06:46:24;;;;;;;8.05;5.75;;;;;;;17.31;62.97;102306.94;4986489;28;102326;-54
2021/10/02 06:48:51;;;;;;;5.60;4.57;;;;;;;17.30;63.35;102314.34;4991876;28;103903;-54
2021/10/02 06:51:18;;;;;;;6.07;5.47;;;;;;;17.30;62.89;102317.09;5010144;28;102410;-54
2021/10/02 06:53:44;;;;;;;6.32;5.60;;;;;;;17.30;62.93;102313.53;5008646;28;102278;-54
2021/10/02 06:56:11;;;;;;;8.02;6.22;;;;;;;17.30;63.19;102310.78;5011699;28;103090;-54
2021/10/02 06:58:38;;;;;;;7.70;5.72;;;;;;;17.30;62.63;102316.28;5003160;28;104460;-54
2021/10/02 07:01:04;;;;;;;9.25;6.57;;;;;;;17.29;62.95;102315.47;5004663;28;102619;-54
2021/10/02 07:03:33;;;;;;;9.93;7.00;;;;;;;17.29;62.65;102312.72;5004452;28;103755;-54
2021/10/02 07:06:02;;;;;;;8.52;6.18;;;;;;;17.29;62.98;102309.16;5008716;28;104530;-54
2021/10/02 07:08:29;;;;;;;8.10;6.07;;;;;;;17.29;62.63;102314.66;5006744;27;103916;-53
2021/10/02 07:10:57;;;;;;;8.10;5.78;;;;;;;17.29;62.54;102315.47;5013743;28;102830;-54
2021/10/02 07:13:24;;;;;;;8.88;6.10;;;;;;;17.28;62.57;102313.00;5004960;28;102159;-55
2021/10/02 07:15:54;;;;;;;7.80;5.50;;;;;;;17.28;62.33;102302.00;5011735;28;102886;-55
2021/10/02 07:18:21;;;;;;;6.70;5.65;;;;;;;17.27;62.33;102300.34;5009530;28;103991;-54
2021/10/02 07:20:49;;;;;;;6.93;5.80;;;;;;;17.27;62.81;102305.84;5009719;28;102557;-54
2021/10/02 07:23:20;;;;;;;8.20;5.78;;;;;;;17.27;62.43;102303.09;5006888;28;102547;-54
2021/10/02 07:25:47;;;;;;;10.10;6.13;;;;;;;17.27;62.98;102303.09;5008503;28;102226;-53
2021/10/02 07:28:14;;;;;;;8.18;5.45;;;;;;;17.28;62.21;102291.81;5009762;28;103864;-54
2021/10/02 07:30:40;;;;;;;8.38;5.55;;;;;;;17.28;62.11;102302.00;5004487;28;102511;-54
2021/10/02 07:33:07;;;;;;;8.63;5.72;;;;;;;17.28;62.05;102296.50;5009056;28;102178;-54
2021/10/02 07:35:35;;;;;;;8.88;6.03;;;;;;;17.29;62.34;102292.63;5001257;28;102418;-55
2021/10/02 07:38:03;;;;;;;7.13;6.15;;;;;;;17.28;61.90;102296.50;5010520;28;103956;-54
2021/10/02 07:40:30;;;;;;;7.13;6.03;;;;;;;17.29;62.41;102287.13;5002017;28;104194;-54
2021/10/02 07:43:01;;;;;;;7.35;6.22;;;;;;;17.29;62.55;102289.88;5006342;28;102678;-54
2021/10/02 07:45:28;;;;;;;6.35;5.35;;;;;;;17.29;62.00;102292.63;5000182;28;102239;-55
2021/10/02 07:47:57;;;;;;;7.10;5.68;;;;;;;17.29;62.20;102304.47;5012020;28;104235;-55
2021/10/02 07:50:24;;;;;;;6.70;5.40;;;;;;;17.30;62.03;102300.59;4999264;28;102522;-53
2021/10/02 07:52:54;;;;;;;6.90;5.57;;;;;;;17.31;62.05;102301.44;5004240;28;103779;-54
2021/10/02 07:55:24;;;;;;;8.13;5.63;;;;;;;17.31;62.25;102304.19;5005995;28;102672;-53
2021/10/02 07:57:51;;;;;;;8.48;5.72;;;;;;;17.30;62.18;102300.59;5010509;28;103895;-53
2021/10/02 08:00:19;;;;;;;6.05;5.15;;;;;;;17.30;62.19;102305.28;5010316;28;102683;-54
2021/10/02 08:02:48;;;;;;;10.95;4.85;;;;;;;17.29;61.71;102292.63;5002955;28;102164;-54
2021/10/02 08:05:15;;;;;;;6.45;5.25;;;;;;;17.29;61.81;102295.38;5011000;28;102346;-55
2021/10/02 08:07:43;;;;;;;7.30;5.25;;;;;;;17.29;61.68;102295.38;5006369;28;104214;-53
2021/10/02 08:10:12;;;;;;;6.83;4.40;;;;;;;17.27;61.38;102292.06;5005821;28;102276;-54
2021/10/02 08:12:41;;;;;;;8.02;4.53;;;;;;;17.27;60.81;102294.81;5008204;28;102269;-53
2021/10/02 08:15:08;;;;;;;;;;;;;;;17.26;60.73;102284.94;5003072;28;102355;-54
2021/10/02 08:17:37;;;;;;;8.20;5.13;;;;;;;17.25;61.04;102283.28;5005384;28;103845;-53
2021/10/02 08:20:09;;;;;;;6.63;4.95;;;;;;;17.25;61.13;102294.31;5010299;28;102486;-53
2021/10/02 08:22:38;;;;;;;5.47;4.35;;;;;;;17.25;60.98;102292.38;5006916;28;102049;-53
2021/10/02 08:25:05;;;;;;;;;;;;;;;17.27;61.23;102278.31;5003711;28;102438;-54
2021/10/02 08:27:32;;;;;;;9.25;4.70;;;;;;;17.28;61.06;102271.72;5011910;28;103894;-54
2021/10/02 08:30:03;;;;;;;7.70;4.40;;;;;;;17.23;60.53;102279.97;5006562;28;102345;-55
2021/10/02 08:32:30;;;;;;;12.57;5.72;;;;;;;17.15;59.40;102278.63;5003357;28;102198;-54
2021/10/02 08:34:57;;;;;;;10.00;4.28;;;;;;;17.14;60.02;102278.91;5001638;28;102679;-55
2021/10/02 08:37:24;;;;;;;4.45;4.00;;;;;;;17.13;59.77;102289.09;5005414;27;103777;-55
2021/10/02 08:39:50;;;;;;;11.45;4.30;;;;;;;17.10;59.87;102283.31;5005850;28;102202;-55
2021/10/02 08:42:18;;;;;;;5.95;4.80;;;;;;;17.08;59.83;102286.34;5003125;28;102487;-55
2021/10/02 08:44:49;;;;;;;6.25;4.60;;;;;;;17.04;58.35;102280.56;5003759;28;102286;-55
2021/10/02 08:47:20;;;;;;;7.13;4.53;;;;;;;17.00;58.82;102273.97;5009319;28;103892;-55
2021/10/02 08:49:49;;;;;;;6.95;4.15;;;;;;;16.97;58.73;102268.19;5006517;27;105222;-55
2021/10/02 08:52:17;;;;;;;6.33;4.47;;;;;;;16.95;58.46;102265.75;5003283;28;103479;-55
2021/10/02 08:54:52;;;;;;;6.82;4.47;;;;;;;16.95;58.79;102262.13;5006496;28;102217;-54
2021/10/02 08:57:27;;;;;;;6.30;4.70;;;;;;;16.91;57.98;102264.63;5009843;28;103941;-55
2021/10/02 08:59:55;;;;;;;6.15;5.00;;;;;;;16.94;58.52;102269.56;5007990;28;102099;-55
2021/10/02 09:02:25;;;;;;;5.63;4.60;;;;;;;16.93;58.79;102270.69;5008592;28;102340;-55
2021/10/02 09:04:53;;;;;;;8.30;4.72;;;;;;;16.93;58.26;102267.94;5006892;28;103815;-55
2021/10/02 09:07:23;;;;;;;5.77;5.00;;;;;;;16.91;58.58;102264.63;4995860;28;105240;-55
2021/10/02 09:09:56;;;;;;;6.32;4.50;;;;;;;16.91;58.84;102250.88;5008751;28;102399;-55
2021/10/02 09:12:23;;;;;;;6.78;4.95;;;;;;;16.91;57.95;102259.13;5011927;28;106125;-55
2021/10/02 09:14:52;;;;;;;6.95;5.28;;;;;;;16.90;58.77;102254.72;5011037;28;102543;-55
2021/10/02 09:17:21;;;;;;;8.10;4.55;;;;;;;16.93;58.41;102258.84;5002243;28;103965;-56
2021/10/02 09:19:49;;;;;;;6.28;5.00;;;;;;;16.87;58.23;102252.53;5001665;28;102697;-55
2021/10/02 09:22:22;;;;;;;8.02;4.32;;;;;;;16.88;58.52;102245.94;5007263;28;102804;-55
2021/10/02 09:24:52;;;;;;;12.63;6.90;;;;;;;16.88;58.57;102256.09;5007917;28;102263;-55
2021/10/02 09:27:23;;;;;;;10.70;6.20;;;;;;;16.88;58.81;102254.19;5013294;28;102724;-55
2021/10/02 09:29:56;;;;;;;6.97;5.38;;;;;;;16.90;58.99;102246.47;5007578;28;102214;-55
2021/10/02 09:32:28;;;;;;;5.70;5.10;;;;;;;16.91;59.14;102247.31;5009293;28;102662;-55
2021/10/02 09:34:58;;;;;;;8.73;5.72;;;;;;;16.88;59.27;102243.19;5009485;28;102436;-55
2021/10/02 09:37:27;;;;;;;10.50;6.63;;;;;;;16.87;57.94;102244.28;5007014;28;103009;-56
2021/10/02 09:39:58;;;;;;;6.43;5.13;;;;;;;16.88;58.54;102243.19;5003819;28;102880;-56
2021/10/02 09:42:31;;;;;;;9.32;5.97;;;;;;;16.90;58.67;102245.66;5003211;28;105153;-55
2021/10/02 09:45:05;;;;;;;11.18;5.95;;;;;;;16.91;59.24;102244.56;5001921;28;102224;-55
2021/10/02 09:47:35;;;;;;;10.05;5.28;;;;;;;16.89;59.30;102242.09;5002435;28;103692;-55
2021/10/02 09:50:09;;;;;;;11.90;7.70;;;;;;;16.89;56.85;102238.53;5004675;28;104924;-56
2021/10/02 09:52:38;;;;;;;8.65;5.82;;;;;;;16.89;58.78;102244.84;5009119;28;102182;-56
2021/10/02 09:55:18;;;;;;;7.25;5.93;;;;;;;16.89;58.90;102242.09;4998682;28;103231;-55
2021/10/02 09:57:47;;;;;;;9.63;6.28;;;;;;;16.84;58.72;102236.59;5009919;28;103753;-55
2021/10/02 10:00:16;;;;;;;8.77;5.60;;;;;;;16.83;59.36;102240.44;5013811;28;103212;-57
2021/10/02 10:02:44;;;;;;;13.00;5.15;;;;;;;16.84;57.79;102242.09;5008136;28;102458;-57
2021/10/02 10:05:13;;;;;;;11.85;5.78;;;;;;;16.85;58.62;102232.75;5005055;28;102192;-57
2021/10/02 10:07:51;;;;;;;8.30;5.28;;;;;;;16.86;58.48;102233.56;5004609;28;104264;-58
2021/10/02 10:10:18;;;;;;;7.78;5.47;;;;;;;16.86;57.94;102231.63;5010535;28;102577;-58
2021/10/02 10:12:45;;;;;;;11.75;5.40;;;;;;;16.85;58.48;102219.00;5009699;28;102249;-57
2021/10/02 10:15:43;;;;;;;11.98;5.30;;;;;;;16.86;58.75;102223.38;5009228;28;102649;-58
2021/10/02 10:18:12;;;;;;;8.40;5.10;;;;;;;16.88;58.73;102221.19;5003972;28;107968;-58
2021/10/02 10:20:48;;;;;;;7.90;4.82;;;;;;;16.88;58.92;102226.69;5012402;28;102167;-57
2021/10/02 10:23:26;;;;;;;9.02;4.78;;;;;;;16.88;58.98;102215.69;5007966;28;102157;-58
2021/10/02 10:25:55;;;;;;;8.50;4.97;;;;;;;16.88;57.61;102215.69;5007874;27;102172;-58
2021/10/02 10:28:24;;;;;;;6.18;5.30;;;;;;;16.87;58.83;102207.72;5014592;27;103978;-57
2021/10/02 10:30:52;;;;;;;7.47;5.22;;;;;;;16.87;58.79;102208.53;5007741;28;102436;-58
2021/10/02 10:33:19;;;;;;;9.35;4.75;;;;;;;16.88;57.90;102203.84;5012726;28;102176;-58
2021/10/02 10:35:49;;;;;;;6.93;4.85;;;;;;;16.85;57.48;102199.75;5005482;28;102638;-57
2021/10/02 10:38:18;;;;;;;6.05;4.55;;;;;;;16.85;58.19;102193.44;5009664;28;104104;-58
2021/10/02 10:40:46;;;;;;;4.57;4.18;;;;;;;16.87;58.34;102194.78;5009968;28;102492;-58
2021/10/02 10:43:13;;;;;;;5.18;4.07;;;;;;;16.87;58.44;102192.03;5012203;28;102739;-58
2021/10/02 10:45:40;;;;;;;4.68;4.10;;;;;;;16.88;58.36;102193.72;5006957;27;102774;-57
2021/10/02 10:48:08;;;;;;;5.45;4.15;;;;;;;16.88;58.56;102190.97;5000473;28;103927;-58
2021/10/02 10:50:37;;;;;;;7.35;4.25;;;;;;;16.88;58.85;102182.69;5011007;28;102304;-58
2021/10/02 10:53:06;;;;;;;6.25;4.25;;;;;;;16.88;58.32;102177.19;5011923;28;102580;-57
2021/10/02 10:55:33;;;;;;;6.13;4.20;;;;;;;16.88;58.78;102177.19;5007920;28;102488;-57
2021/10/02 10:58:01;;;;;;;6.57;4.53;;;;;;;16.89;58.12;102183.53;5002221;28;103861;-57
2021/10/02 11:00:41;;;;;;;5.95;4.05;;;;;;;16.89;58.52;102165.09;5004303;28;103181;-58
2021/10/02 11:03:10;;;;;;;9.07;3.88;;;;;;;16.88;56.95;102171.72;5003616;28;102475;-57
2021/10/02 11:05:47;;;;;;;8.25;4.03;;;;;;;16.88;57.86;102168.97;5017234;28;102167;-58
2021/10/02 11:08:19;;;;;;;6.10;4.32;;;;;;;16.88;57.71;102163.47;5011096;28;104132;-58
2021/10/02 11:10:49;;;;;;;4.43;3.38;;;;;;;16.87;58.07;102153.53;5010465;28;103255;-58
2021/10/02 11:13:17;;;;;;;7.53;3.88;;;;;;;16.86;57.92;102151.91;5003422;28;102271;-56
2021/10/02 11:15:48;;;;;;;3.53;3.05;;;;;;;16.88;57.89;102144.22;5003531;28;102754;-57
2021/10/02 11:18:43;;;;;;;3.85;3.25;;;;;;;16.88;58.15;102155.22;5002332;28;103923;-56
2021/10/02 11:21:12;;;;;;;3.33;3.03;;;;;;;16.88;58.44;102149.72;5006149;28;102232;-57
2021/10/02 11:24:14;;;;;;;4.07;2.57;;;;;;;16.88;58.32;102149.72;5008166;28;103050;-57
2021/10/02 11:26:49;;;;;;;6.60;3.15;;;;;;;16.84;55.81;102142.28;4999970;28;103685;-57
2021/10/02 11:29:29;;;;;;;3.88;3.25;;;;;;;16.84;57.14;102151.38;4998600;28;103994;-56
2021/10/02 11:32:21;;;;;;;3.85;3.03;;;;;;;16.86;57.25;102146.41;5004359;27;102130;-57
2021/10/02 11:35:11;;;;;;;3.63;3.08;;;;;;;16.87;57.18;102156.28;4996195;28;102377;-57
2021/10/02 11:37:43;;;;;;;3.78;2.83;;;;;;;16.86;57.67;102151.91;5008424;28;102471;-57
2021/10/02 11:40:47;;;;;;;3.72;2.78;;;;;;;16.87;56.79;102141.72;5001768;28;104027;-58
2021/10/02 11:43:24;;;;;;;3.53;2.67;;;;;;;16.86;57.31;102146.41;5013133;28;102195;-58
2021/10/02 11:46:09;;;;;;;4.50;2.90;;;;;;;16.86;57.75;102135.41;5008947;28;102720;-58
2021/10/02 11:48:39;;;;;;;4.03;2.70;;;;;;;16.86;57.90;102140.91;5012712;27;102220;-58
2021/10/02 11:51:19;;;;;;;4.65;2.45;;;;;;;16.87;57.75;102130.72;5011332;28;103997;-58
2021/10/02 11:53:47;;;;;;;5.00;3.20;;;;;;;16.87;57.71;102131.53;5013645;27;102049;-58
2021/10/02 11:56:18;;;;;;;4.40;2.70;;;;;;;16.87;57.74;102126.03;5006026;28;102281;-58
2021/10/02 11:58:47;;;;;;;5.55;2.83;;;;;;;16.88;57.92;102127.72;5002909;28;102270;-58
2021/10/02 12:01:20;;;;;;;3.40;2.53;;;;;;;16.88;57.66;102127.72;5007735;28;104220;-58
2021/10/02 12:03:47;;;;;;;3.72;2.53;;;;;;;16.88;57.81;102122.22;5006828;28;102210;-58
2021/10/02 12:06:18;;;;;;;4.78;2.35;;;;;;;16.87;57.05;102126.03;5002420;28;102410;-58
2021/10/02 12:08:45;;;;;;;3.08;2.40;;;;;;;16.87;57.40;102123.28;5009498;28;101991;-58
2021/10/02 12:11:13;;;;;;;4.22;2.47;;;;;;;16.88;57.88;102121.34;5001202;28;103902;-58
2021/10/02 12:13:43;;;;;;;3.55;2.28;;;;;;;16.87;57.97;102115.03;5006774;27;102646;-58
2021/10/02 12:16:14;;;;;;;2.38;1.85;;;;;;;16.81;55.86;102124.44;4999031;28;102617;-58
2021/10/02 12:18:52;;;;;;;3.90;1.95;;;;;;;16.83;56.26;102121.38;5008417;28;102680;-58
2021/10/02 12:21:43;;;;;;;2.40;1.83;;;;;;;16.85;57.39;102121.94;5009748;28;103979;-58
2021/10/02 12:24:13;;;;;;;4.13;2.17;;;;;;;16.85;56.95;102128.25;5006586;28;102482;-58
2021/10/02 12:26:44;;;;;;;3.55;2.10;;;;;;;16.84;57.33;102134.88;5003708;28;102141;-58